Time,TemperatureF,DewpointF,PressureIn,WindDirection,WindDirectionDegrees,WindSpeedMPH,WindSpeedGustMPH,Humidity,HourlyPrecipIn,Conditions,Clouds,dailyrainin,SolarRadiationWatts/m^2,SoftwareType,DateUTC
2013-05-16 00:03:00,56.6,55.0,29.62,West,277,4.3,8.5,94,0.00,,,-99.99,1.0,HOBO +U30 +Weather +,2013-05-16 04:03:00,
2013-05-16 00:04:00,56.7,55.1,29.63,West,278,2.5,8.5,94,0.00,,,-99.99,1.0,HOBO +U30 +Weather +,2013-05-16 04:04:00,
2013-05-16 00:13:00,56.3,54.9,29.62,WNW,284,3.4,7.6,94,0.00,,,-99.99,1.0,HOBO +U30 +Weather +,2013-05-16 04:13:00,
2013-05-16 00:14:00,56.5,55.0,29.63,West,278,3.4,6.7,94,0.00,,,-99.99,1.0,HOBO +U30 +Weather +,2013-05-16 04:14:00,
2013-05-16 00:23:00,56.1,54.7,29.62,WNW,288,1.8,6.0,95,0.00,,,-99.99,1.0,HOBO +U30 +Weather +,2013-05-16 04:23:00,
2013-05-16 00:24:00,56.3,54.9,29.62,West,279,2.5,11.0,94,0.00,,,-99.99,1.0,HOBO +U30 +Weather +,2013-05-16 04:24:00,
2013-05-16 00:33:00,55.9,54.6,29.62,WNW,293,1.8,4.3,95,0.00,,,-99.99,1.0,HOBO +U30 +Weather +,2013-05-16 04:33:00,
2013-05-16 00:34:00,56.1,54.7,29.62,West,274,0.0,0.9,95,0.00,,,-99.99,1.0,HOBO +U30 +Weather +,2013-05-16 04:34:00,
2013-05-16 00:35:00,55.9,54.6,29.62,WNW,293,1.8,6.7,95,0.00,,,-99.99,1.0,HOBO +U30 +Weather +,2013-05-16 04:35:00,
2013-05-16 00:43:00,55.6,54.4,29.62,West,271,0.9,6.0,95,0.00,,,-99.99,1.0,HOBO +U30 +Weather +,2013-05-16 04:43:00,
2013-05-16 00:44:00,55.6,54.4,29.62,WNW,292,0.0,4.3,95,0.00,,,-99.99,1.0,HOBO +U30 +Weather +,2013-05-16 04:44:00,
2013-05-16 00:45:00,55.8,54.5,29.62,WNW,288,3.4,6.7,95,0.00,,,-99.99,1.0,HOBO +U30 +Weather +,2013-05-16 04:45:00,
2013-05-16 00:53:00,55.3,54.1,29.61,WNW,289,1.8,5.1,95,0.00,,,-99.99,1.0,HOBO +U30 +Weather +,2013-05-16 04:53:00,
2013-05-16 00:54:00,55.6,54.4,29.62,West,272,4.3,7.6,95,0.00,,,-99.99,1.0,HOBO +U30 +Weather +,2013-05-16 04:54:00,
2013-05-16 01:03:00,55.0,53.9,29.62,WNW,282,0.9,5.1,96,0.00,,,-99.99,1.0,HOBO +U30 +Weather +,2013-05-16 05:03:00,
2013-05-16 01:04:00,55.3,54.1,29.62,West,272,1.8,5.1,95,0.00,,,-99.99,1.0,HOBO +U30 +Weather +,2013-05-16 05:04:00,
2013-05-16 01:13:00,54.5,53.6,29.61,WNW,284,0.0,2.5,96,0.00,,,-99.99,1.0,HOBO +U30 +Weather +,2013-05-16 05:13:00,
2013-05-16 01:14:00,54.9,53.8,29.61,West,278,1.8,5.1,96,0.00,,,-99.99,1.0,HOBO +U30 +Weather +,2013-05-16 05:14:00,
2013-05-16 01:23:00,54.2,53.4,29.61,WNW,288,0.0,0.9,97,0.00,,,-99.99,1.0,HOBO +U30 +Weather +,2013-05-16 05:23:00,
2013-05-16 01:24:00,54.5,53.6,29.61,West,278,3.4,7.6,96,0.00,,,-99.99,1.0,HOBO +U30 +Weather +,2013-05-16 05:24:00,
2013-05-16 01:33:00,54.0,53.3,29.60,WNW,293,0.0,0.0,97,0.00,,,-99.99,1.0,HOBO +U30 +Weather +,2013-05-16 05:33:00,
2013-05-16 01:34:00,54.2,53.5,29.60,West,268,1.8,6.7,97,0.00,,,-99.99,1.0,HOBO +U30 +Weather +,2013-05-16 05:34:00,
2013-05-16 01:35:00,54.0,53.3,29.60,West,267,0.9,3.4,97,0.00,,,-99.99,1.0,HOBO +U30 +Weather +,2013-05-16 05:35:00,
2013-05-16 01:43:00,53.9,53.3,29.61,West,263,0.0,2.5,97,0.00,,,-99.99,1.0,HOBO +U30 +Weather +,2013-05-16 05:43:00,
2013-05-16 01:44:00,53.8,53.2,29.61,WNW,282,0.0,0.9,97,0.00,,,-99.99,1.0,HOBO +U30 +Weather +,2013-05-16 05:44:00,
2013-05-16 01:45:00,54.0,53.3,29.61,WNW,285,0.9,4.3,97,0.00,,,-99.99,1.0,HOBO +U30 +Weather +,2013-05-16 05:45:00,
2013-05-16 01:53:00,53.6,53.0,29.61,WNW,292,0.0,0.0,97,0.00,,,-99.99,1.0,HOBO +U30 +Weather +,2013-05-16 05:53:00,
2013-05-16 01:54:00,53.8,53.2,29.61,WNW,284,0.0,2.5,97,0.00,,,-99.99,1.0,HOBO +U30 +Weather +,2013-05-16 05:54:00,
2013-05-16 02:03:00,53.4,53.0,29.61,West,271,0.0,1.8,98,0.00,,,-99.99,1.0,HOBO +U30 +Weather +,2013-05-16 06:03:00,
2013-05-16 02:04:00,53.5,53.0,29.61,West,267,0.9,2.5,98,0.00,,,-99.99,1.0,HOBO +U30 +Weather +,2013-05-16 06:04:00,
2013-05-16 02:13:00,53.2,52.8,29.60,WNW,292,0.0,0.0,98,0.00,,,-99.99,1.0,HOBO +U30 +Weather +,2013-05-16 06:13:00,
2013-05-16 02:14:00,53.5,53.0,29.61,West,267,0.0,0.9,98,0.00,,,-99.99,1.0,HOBO +U30 +Weather +,2013-05-16 06:14:00,
2013-05-16 02:23:00,52.9,52.6,29.60,WNW,295,0.0,0.0,98,0.00,,,-99.99,1.0,HOBO +U30 +Weather +,2013-05-16 06:23:00,
2013-05-16 02:24:00,53.1,52.7,29.60,West,281,0.0,1.8,98,0.00,,,-99.99,1.0,HOBO +U30 +Weather +,2013-05-16 06:24:00,
2013-05-16 02:33:00,52.6,52.3,29.60,NW,310,0.0,0.0,99,0.00,,,-99.99,1.0,HOBO +U30 +Weather +,2013-05-16 06:33:00,
2013-05-16 02:34:00,52.9,52.6,29.60,WNW,285,0.0,0.9,98,0.00,,,-99.99,1.0,HOBO +U30 +Weather +,2013-05-16 06:34:00,
2013-05-16 02:43:00,52.4,52.2,29.60,West,277,0.0,0.0,99,0.00,,,-99.99,1.0,HOBO +U30 +Weather +,2013-05-16 06:43:00,
2013-05-16 02:44:00,52.3,52.0,29.60,NW,310,0.0,0.0,98,0.00,,,-99.99,1.0,HOBO +U30 +Weather +,2013-05-16 06:44:00,
2013-05-16 02:53:00,51.7,51.5,29.61,WNW,303,0.0,0.0,99,0.00,,,-99.99,1.0,HOBO +U30 +Weather +,2013-05-16 06:53:00,
2013-05-16 02:54:00,52.3,52.1,29.60,West,277,0.0,0.0,99,0.00,,,-99.99,1.0,HOBO +U30 +Weather +,2013-05-16 06:54:00,
2013-05-16 02:55:00,52.0,51.8,29.60,West,268,0.0,2.5,99,0.00,,,-99.99,1.0,HOBO +U30 +Weather +,2013-05-16 06:55:00,
2013-05-16 03:03:00,52.1,51.9,29.60,WNW,282,0.0,0.9,99,0.00,,,-99.99,1.0,HOBO +U30 +Weather +,2013-05-16 07:03:00,
2013-05-16 03:04:00,52.1,52.0,29.60,WNW,286,0.0,0.0,99,0.00,,,-99.99,1.0,HOBO +U30 +Weather +,2013-05-16 07:04:00,
2013-05-16 03:05:00,52.2,52.1,29.61,West,272,0.0,3.4,99,0.00,,,-99.99,1.0,HOBO +U30 +Weather +,2013-05-16 07:05:00,
2013-05-16 03:13:00,51.8,51.7,29.60,West,277,0.0,0.0,99,0.00,,,-99.99,1.0,HOBO +U30 +Weather +,2013-05-16 07:13:00,
2013-05-16 03:14:00,52.0,51.9,29.60,WNW,289,0.0,0.0,99,0.00,,,-99.99,1.0,HOBO +U30 +Weather +,2013-05-16 07:14:00,
2013-05-16 03:23:00,51.9,51.9,29.60,West,268,0.0,0.9,99,0.00,,,-99.99,1.0,HOBO +U30 +Weather +,2013-05-16 07:23:00,
2013-05-16 03:24:00,51.5,51.4,29.60,NNW,329,0.0,0.0,99,0.00,,,-99.99,1.0,HOBO +U30 +Weather +,2013-05-16 07:24:00,
2013-05-16 03:33:00,51.4,51.3,29.60,WSW,248,0.0,0.0,99,0.00,,,-99.99,1.0,HOBO +U30 +Weather +,2013-05-16 07:33:00,
2013-05-16 03:34:00,52.0,52.0,29.60,West,270,0.0,1.8,99,0.00,,,-99.99,1.0,HOBO +U30 +Weather +,2013-05-16 07:34:00,
2013-05-16 03:43:00,51.6,51.6,29.60,West,263,0.0,0.9,99,0.00,,,-99.99,1.0,HOBO +U30 +Weather +,2013-05-16 07:43:00,
2013-05-16 03:44:00,51.1,51.1,29.60,WSW,248,0.0,0.0,99,0.00,,,-99.99,1.0,HOBO +U30 +Weather +,2013-05-16 07:44:00,
2013-05-16 03:53:00,51.2,51.2,29.60,SW,232,0.0,0.0,99,0.00,,,-99.99,1.0,HOBO +U30 +Weather +,2013-05-16 07:53:00,
2013-05-16 03:54:00,51.3,51.2,29.60,WNW,293,0.0,0.0,99,0.00,,,-99.99,1.0,HOBO +U30 +Weather +,2013-05-16 07:54:00,
2013-05-16 04:03:00,51.5,51.5,29.59,SW,232,0.0,0.0,100,0.00,,,-99.99,1.0,HOBO +U30 +Weather +,2013-05-16 08:03:00,
2013-05-16 04:04:00,51.2,51.2,29.60,SW,232,0.0,0.0,99,0.00,,,-99.99,1.0,HOBO +U30 +Weather +,2013-05-16 08:04:00,
2013-05-16 04:13:00,51.1,51.1,29.60,West,263,0.0,0.0,99,0.00,,,-99.99,1.0,HOBO +U30 +Weather +,2013-05-16 08:13:00,
2013-05-16 04:14:00,51.0,51.0,29.60,SW,232,0.0,0.0,100,0.00,,,-99.99,1.0,HOBO +U30 +Weather +,2013-05-16 08:14:00,
2013-05-16 04:23:00,51.1,51.1,29.59,West,263,0.0,0.0,100,0.00,,,-99.99,1.0,HOBO +U30 +Weather +,2013-05-16 08:23:00,
2013-05-16 04:24:00,51.1,51.1,29.59,West,263,0.0,0.0,100,0.00,,,-99.99,1.0,HOBO +U30 +Weather +,2013-05-16 08:24:00,
2013-05-16 04:33:00,50.1,50.2,29.60,West,260,0.0,0.0,100,0.00,,,-99.99,1.0,HOBO +U30 +Weather +,2013-05-16 08:33:00,
2013-05-16 04:34:00,50.6,50.6,29.59,West,263,0.0,0.0,100,0.00,,,-99.99,1.0,HOBO +U30 +Weather +,2013-05-16 08:34:00,
2013-05-16 04:43:00,49.1,49.1,29.60,West,260,0.0,0.0,100,0.00,,,-99.99,1.0,HOBO +U30 +Weather +,2013-05-16 08:43:00,
2013-05-16 04:44:00,50.4,50.4,29.59,West,260,0.0,0.0,100,0.00,,,-99.99,1.0,HOBO +U30 +Weather +,2013-05-16 08:44:00,
2013-05-16 04:53:00,50.1,50.1,29.60,West,268,0.0,0.0,100,0.00,,,-99.99,1.0,HOBO +U30 +Weather +,2013-05-16 08:53:00,
2013-05-16 04:54:00,48.5,48.5,29.60,West,260,0.0,0.0,100,0.00,,,-99.99,1.0,HOBO +U30 +Weather +,2013-05-16 08:54:00,
2013-05-16 05:03:00,50.3,50.3,29.60,West,277,0.0,0.0,100,0.00,,,-99.99,1.0,HOBO +U30 +Weather +,2013-05-16 09:03:00,
2013-05-16 05:04:00,49.7,49.7,29.60,West,268,0.0,0.0,100,0.00,,,-99.99,1.0,HOBO +U30 +Weather +,2013-05-16 09:04:00,
2013-05-16 05:13:00,49.3,49.4,29.61,West,271,0.0,0.0,100,0.00,,,-99.99,2.0,HOBO +U30 +Weather +,2013-05-16 09:13:00,
2013-05-16 05:14:00,49.5,49.5,29.60,West,277,0.0,0.0,100,0.00,,,-99.99,1.0,HOBO +U30 +Weather +,2013-05-16 09:14:00,
2013-05-16 05:23:00,50.7,50.7,29.60,West,271,0.0,0.0,100,0.00,,,-99.99,4.0,HOBO +U30 +Weather +,2013-05-16 09:23:00,
2013-05-16 05:24:00,49.6,49.7,29.61,West,271,0.0,0.0,100,0.00,,,-99.99,2.0,HOBO +U30 +Weather +,2013-05-16 09:24:00,
2013-05-16 05:33:00,49.2,49.2,29.61,West,271,0.0,0.0,100,0.00,,,-99.99,11.0,HOBO +U30 +Weather +,2013-05-16 09:33:00,
2013-05-16 05:34:00,50.2,50.2,29.61,West,271,0.0,0.0,100,0.00,,,-99.99,6.0,HOBO +U30 +Weather +,2013-05-16 09:34:00,
2013-05-16 05:43:00,48.6,48.7,29.62,West,271,0.0,0.0,100,0.00,,,-99.99,18.0,HOBO +U30 +Weather +,2013-05-16 09:43:00,
2013-05-16 05:44:00,49.2,49.2,29.61,West,271,0.0,0.0,100,0.00,,,-99.99,13.0,HOBO +U30 +Weather +,2013-05-16 09:44:00,
2013-05-16 05:45:00,48.8,48.9,29.62,West,271,0.0,0.0,100,0.00,,,-99.99,19.0,HOBO +U30 +Weather +,2013-05-16 09:45:00,
2013-05-16 05:53:00,50.2,50.2,29.62,West,271,0.0,0.0,100,0.00,,,-99.99,22.0,HOBO +U30 +Weather +,2013-05-16 09:53:00,
2013-05-16 05:54:00,50.1,50.2,29.61,West,271,0.0,0.0,100,0.00,,,-99.99,23.0,HOBO +U30 +Weather +,2013-05-16 09:54:00,
2013-05-16 05:55:00,49.1,49.1,29.62,West,271,0.0,0.0,100,0.00,,,-99.99,19.0,HOBO +U30 +Weather +,2013-05-16 09:55:00,
2013-05-16 06:03:00,51.4,51.4,29.62,West,271,0.0,0.0,100,0.00,,,-99.99,32.0,HOBO +U30 +Weather +,2013-05-16 10:03:00,
2013-05-16 06:04:00,50.0,50.0,29.62,West,271,0.0,0.0,100,0.00,,,-99.99,23.0,HOBO +U30 +Weather +,2013-05-16 10:04:00,
2013-05-16 06:05:00,50.9,50.9,29.62,West,271,0.0,0.0,100,0.00,,,-99.99,36.0,HOBO +U30 +Weather +,2013-05-16 10:05:00,
2013-05-16 06:13:00,51.1,51.1,29.62,West,271,0.0,0.0,100,0.00,,,-99.99,47.0,HOBO +U30 +Weather +,2013-05-16 10:13:00,
2013-05-16 06:14:00,51.2,51.3,29.62,West,271,0.0,0.0,100,0.00,,,-99.99,46.0,HOBO +U30 +Weather +,2013-05-16 10:14:00,
2013-05-16 06:15:00,50.8,50.9,29.62,West,271,0.0,0.0,100,0.00,,,-99.99,37.0,HOBO +U30 +Weather +,2013-05-16 10:15:00,
2013-05-16 06:23:00,51.9,51.9,29.62,West,271,0.0,0.0,100,0.00,,,-99.99,108.0,HOBO +U30 +Weather +,2013-05-16 10:23:00,
2013-05-16 06:24:00,51.9,51.9,29.62,West,271,0.0,0.0,100,0.00,,,-99.99,123.0,HOBO +U30 +Weather +,2013-05-16 10:24:00,
2013-05-16 06:25:00,51.5,51.5,29.62,West,271,0.0,0.0,100,0.00,,,-99.99,46.0,HOBO +U30 +Weather +,2013-05-16 10:25:00,
2013-05-16 06:33:00,54.2,54.2,29.62,West,270,0.0,0.0,100,0.00,,,-99.99,91.0,HOBO +U30 +Weather +,2013-05-16 10:33:00,
2013-05-16 06:34:00,52.1,52.1,29.63,West,271,0.0,0.0,100,0.00,,,-99.99,123.0,HOBO +U30 +Weather +,2013-05-16 10:34:00,
2013-05-16 06:35:00,54.3,54.4,29.62,West,270,0.0,0.0,100,0.00,,,-99.99,89.0,HOBO +U30 +Weather +,2013-05-16 10:35:00,
2013-05-16 06:43:00,54.8,54.9,29.62,WSW,247,0.0,0.0,100,0.00,,,-99.99,141.0,HOBO +U30 +Weather +,2013-05-16 10:43:00,
2013-05-16 06:44:00,54.9,54.9,29.62,WSW,247,0.0,0.0,100,0.00,,,-99.99,128.0,HOBO +U30 +Weather +,2013-05-16 10:44:00,
2013-05-16 06:45:00,54.4,54.4,29.62,West,270,0.0,0.0,100,0.00,,,-99.99,87.0,HOBO +U30 +Weather +,2013-05-16 10:45:00,
2013-05-16 06:53:00,56.0,56.1,29.62,WSW,247,0.0,0.0,100,0.00,,,-99.99,224.0,HOBO +U30 +Weather +,2013-05-16 10:53:00,
2013-05-16 06:54:00,54.9,55.0,29.62,WSW,247,0.0,0.0,100,0.00,,,-99.99,134.0,HOBO +U30 +Weather +,2013-05-16 10:54:00,
2013-05-16 07:03:00,57.7,57.3,29.62,WSW,248,0.0,0.0,98,0.00,,,-99.99,221.0,HOBO +U30 +Weather +,2013-05-16 11:03:00,
2013-05-16 07:04:00,56.5,56.5,29.62,WSW,247,0.0,0.0,100,0.00,,,-99.99,259.0,HOBO +U30 +Weather +,2013-05-16 11:04:00,
2013-05-16 07:13:00,57.8,54.8,29.62,WSW,250,0.0,0.0,89,0.00,,,-99.99,224.0,HOBO +U30 +Weather +,2013-05-16 11:13:00,
2013-05-16 07:14:00,57.8,56.7,29.62,WSW,248,0.0,0.0,96,0.00,,,-99.99,187.0,HOBO +U30 +Weather +,2013-05-16 11:14:00,
2013-05-16 07:23:00,58.7,54.0,29.62,WNW,286,0.0,1.8,84,0.00,,,-99.99,237.0,HOBO +U30 +Weather +,2013-05-16 11:23:00,
2013-05-16 07:24:00,58.0,54.5,29.62,West,279,0.0,0.9,88,0.00,,,-99.99,234.0,HOBO +U30 +Weather +,2013-05-16 11:24:00,
2013-05-16 07:33:00,60.1,55.0,29.62,WNW,289,0.0,1.8,83,0.00,,,-99.99,378.0,HOBO +U30 +Weather +,2013-05-16 11:33:00,
2013-05-16 07:34:00,58.7,54.2,29.62,West,279,0.0,0.0,84,0.00,,,-99.99,202.0,HOBO +U30 +Weather +,2013-05-16 11:34:00,
2013-05-16 07:43:00,61.7,54.6,29.63,West,278,0.0,1.8,77,0.00,,,-99.99,243.0,HOBO +U30 +Weather +,2013-05-16 11:43:00,
2013-05-16 07:44:00,60.4,55.2,29.63,West,278,0.0,0.0,82,0.00,,,-99.99,389.0,HOBO +U30 +Weather +,2013-05-16 11:44:00,
2013-05-16 07:53:00,61.1,53.9,29.64,West,275,1.8,5.1,77,0.00,,,-99.99,276.0,HOBO +U30 +Weather +,2013-05-16 11:53:00,
2013-05-16 07:54:00,61.8,54.9,29.63,West,278,0.0,2.5,77,0.00,,,-99.99,422.0,HOBO +U30 +Weather +,2013-05-16 11:54:00,
2013-05-16 08:03:00,61.6,53.1,29.64,WNW,286,0.9,5.1,73,0.00,,,-99.99,234.0,HOBO +U30 +Weather +,2013-05-16 12:03:00,
2013-05-16 08:04:00,61.2,53.8,29.64,West,275,0.9,3.4,76,0.00,,,-99.99,358.0,HOBO +U30 +Weather +,2013-05-16 12:04:00,
2013-05-16 08:13:00,62.5,53.2,29.63,West,279,0.9,3.4,71,0.00,,,-99.99,287.0,HOBO +U30 +Weather +,2013-05-16 12:13:00,
2013-05-16 08:14:00,61.8,53.4,29.64,WNW,295,0.0,0.9,73,0.00,,,-99.99,242.0,HOBO +U30 +Weather +,2013-05-16 12:14:00,
2013-05-16 08:23:00,63.4,52.0,29.64,West,278,2.5,5.1,66,0.00,,,-99.99,414.0,HOBO +U30 +Weather +,2013-05-16 12:23:00,
2013-05-16 08:24:00,62.7,52.6,29.63,WNW,285,0.0,1.8,69,0.00,,,-99.99,291.0,HOBO +U30 +Weather +,2013-05-16 12:24:00,
2013-05-16 08:33:00,63.3,51.9,29.63,West,271,1.8,4.3,66,0.00,,,-99.99,234.0,HOBO +U30 +Weather +,2013-05-16 12:33:00,
2013-05-16 08:34:00,63.7,51.9,29.63,West,278,0.0,1.8,65,0.00,,,-99.99,312.0,HOBO +U30 +Weather +,2013-05-16 12:34:00,
2013-05-16 08:43:00,62.5,52.3,29.64,WNW,295,0.0,1.8,69,0.00,,,-99.99,212.0,HOBO +U30 +Weather +,2013-05-16 12:43:00,
2013-05-16 08:44:00,63.1,52.1,29.63,West,279,0.9,4.3,67,0.00,,,-99.99,233.0,HOBO +U30 +Weather +,2013-05-16 12:44:00,
2013-05-16 08:53:00,62.8,52.7,29.65,WNW,282,0.0,1.8,69,0.00,,,-99.99,389.0,HOBO +U30 +Weather +,2013-05-16 12:53:00,
2013-05-16 08:54:00,62.7,52.2,29.64,WNW,285,1.8,4.3,68,0.00,,,-99.99,224.0,HOBO +U30 +Weather +,2013-05-16 12:54:00,
2013-05-16 09:03:00,64.6,52.3,29.65,West,281,1.8,4.3,64,0.00,,,-99.99,446.0,HOBO +U30 +Weather +,2013-05-16 13:03:00,
2013-05-16 09:04:00,63.7,53.1,29.65,WNW,285,0.9,3.4,68,0.00,,,-99.99,594.0,HOBO +U30 +Weather +,2013-05-16 13:04:00,
2013-05-16 09:05:00,64.2,52.4,29.65,NNW,327,2.5,9.4,65,0.00,,,-99.99,376.0,HOBO +U30 +Weather +,2013-05-16 13:05:00,
2013-05-16 09:13:00,63.9,52.4,29.65,NW,309,2.5,6.0,66,0.00,,,-99.99,349.0,HOBO +U30 +Weather +,2013-05-16 13:13:00,
2013-05-16 09:14:00,63.3,52.0,29.65,NW,309,5.1,11.0,66,0.00,,,-99.99,317.0,HOBO +U30 +Weather +,2013-05-16 13:14:00,
2013-05-16 09:15:00,64.3,52.3,29.65,WNW,284,1.8,4.3,64,0.00,,,-99.99,368.0,HOBO +U30 +Weather +,2013-05-16 13:15:00,
2013-05-16 09:23:00,62.2,52.3,29.65,WNW,299,2.5,8.5,69,0.00,,,-99.99,301.0,HOBO +U30 +Weather +,2013-05-16 13:23:00,
2013-05-16 09:24:00,63.0,52.0,29.66,WNW,285,3.4,6.0,67,0.00,,,-99.99,324.0,HOBO +U30 +Weather +,2013-05-16 13:24:00,
2013-05-16 09:33:00,62.5,53.4,29.65,WNW,289,4.3,9.4,72,0.00,,,-99.99,319.0,HOBO +U30 +Weather +,2013-05-16 13:33:00,
2013-05-16 09:34:00,62.7,53.3,29.65,WNW,291,0.9,4.3,71,0.00,,,-99.99,356.0,HOBO +U30 +Weather +,2013-05-16 13:34:00,
2013-05-16 09:43:00,64.4,54.9,29.65,West,270,1.8,4.3,71,0.00,,,-99.99,389.0,HOBO +U30 +Weather +,2013-05-16 13:43:00,
2013-05-16 09:44:00,61.8,52.8,29.65,WNW,298,4.3,10.3,72,0.00,,,-99.99,353.0,HOBO +U30 +Weather +,2013-05-16 13:44:00,
2013-05-16 09:53:00,62.6,52.9,29.65,WNW,286,5.1,7.6,70,0.00,,,-99.99,449.0,HOBO +U30 +Weather +,2013-05-16 13:53:00,
2013-05-16 09:54:00,63.5,54.1,29.65,NW,306,0.9,5.1,71,0.00,,,-99.99,349.0,HOBO +U30 +Weather +,2013-05-16 13:54:00,
2013-05-16 10:03:00,62.6,53.5,29.65,West,278,5.1,6.7,72,0.00,,,-99.99,429.0,HOBO +U30 +Weather +,2013-05-16 14:03:00,
2013-05-16 10:04:00,63.0,53.3,29.64,West,278,5.1,8.5,70,0.00,,,-99.99,346.0,HOBO +U30 +Weather +,2013-05-16 14:04:00,
2013-05-16 10:05:00,62.7,53.3,29.65,WNW,296,2.5,6.7,71,0.00,,,-99.99,337.0,HOBO +U30 +Weather +,2013-05-16 14:05:00,
2013-05-16 10:13:00,62.1,53.5,29.66,WNW,303,1.8,6.7,73,0.00,,,-99.99,479.0,HOBO +U30 +Weather +,2013-05-16 14:13:00,
2013-05-16 10:14:00,62.6,53.7,29.65,WNW,282,1.8,5.1,72,0.00,,,-99.99,356.0,HOBO +U30 +Weather +,2013-05-16 14:14:00,
2013-05-16 10:15:00,62.8,53.8,29.65,West,278,1.8,4.3,72,0.00,,,-99.99,386.0,HOBO +U30 +Weather +,2013-05-16 14:15:00,
2013-05-16 10:23:00,62.9,53.3,29.65,NW,305,4.3,9.4,70,0.00,,,-99.99,326.0,HOBO +U30 +Weather +,2013-05-16 14:23:00,
2013-05-16 10:24:00,62.6,53.6,29.65,West,268,3.4,6.7,72,0.00,,,-99.99,499.0,HOBO +U30 +Weather +,2013-05-16 14:24:00,
2013-05-16 10:33:00,64.0,53.8,29.65,West,270,4.3,7.6,69,0.00,,,-99.99,347.0,HOBO +U30 +Weather +,2013-05-16 14:33:00,
2013-05-16 10:34:00,63.4,53.7,29.65,WNW,293,1.8,5.1,70,0.00,,,-99.99,303.0,HOBO +U30 +Weather +,2013-05-16 14:34:00,
2013-05-16 10:43:00,64.9,54.2,29.65,WNW,282,2.5,6.7,68,0.00,,,-99.99,609.0,HOBO +U30 +Weather +,2013-05-16 14:43:00,
2013-05-16 10:44:00,64.3,54.1,29.66,WNW,302,1.8,4.3,69,0.00,,,-99.99,848.0,HOBO +U30 +Weather +,2013-05-16 14:44:00,
2013-05-16 10:53:00,65.1,54.6,29.66,WNW,282,1.8,6.7,68,0.00,,,-99.99,443.0,HOBO +U30 +Weather +,2013-05-16 14:53:00,
2013-05-16 10:54:00,65.2,54.2,29.66,NW,309,1.8,6.0,67,0.00,,,-99.99,388.0,HOBO +U30 +Weather +,2013-05-16 14:54:00,
2013-05-16 11:03:00,66.8,55.3,29.66,NW,305,2.5,6.7,66,0.00,,,-99.99,739.0,HOBO +U30 +Weather +,2013-05-16 15:03:00,
2013-05-16 11:04:00,64.3,53.8,29.66,WNW,288,4.3,6.7,68,0.00,,,-99.99,478.0,HOBO +U30 +Weather +,2013-05-16 15:04:00,
2013-05-16 11:13:00,66.3,53.9,29.66,West,271,5.1,8.5,64,0.00,,,-99.99,558.0,HOBO +U30 +Weather +,2013-05-16 15:13:00,
2013-05-16 11:14:00,66.8,54.8,29.66,North,350,2.5,6.7,65,0.00,,,-99.99,938.0,HOBO +U30 +Weather +,2013-05-16 15:14:00,
2013-05-16 11:15:00,66.7,54.2,29.65,WNW,295,1.8,4.3,64,0.00,,,-99.99,573.0,HOBO +U30 +Weather +,2013-05-16 15:15:00,
2013-05-16 11:23:00,68.9,55.6,29.65,WNW,289,0.9,4.3,62,0.00,,,-99.99,672.0,HOBO +U30 +Weather +,2013-05-16 15:23:00,
2013-05-16 11:24:00,69.4,55.7,29.65,WNW,300,0.9,5.1,61,0.00,,,-99.99,751.0,HOBO +U30 +Weather +,2013-05-16 15:24:00,
2013-05-16 11:25:00,67.0,54.7,29.66,NW,312,0.0,2.5,64,0.00,,,-99.99,723.0,HOBO +U30 +Weather +,2013-05-16 15:25:00,
2013-05-16 11:33:00,69.4,55.0,29.64,WNW,295,3.4,6.7,60,0.00,,,-99.99,672.0,HOBO +U30 +Weather +,2013-05-16 15:33:00,
2013-05-16 11:34:00,69.5,55.7,29.65,WNW,284,3.4,5.1,61,0.00,,,-99.99,737.0,HOBO +U30 +Weather +,2013-05-16 15:34:00,
2013-05-16 11:43:00,72.4,55.1,29.64,WNW,288,2.5,5.1,54,0.00,,,-99.99,666.0,HOBO +U30 +Weather +,2013-05-16 15:43:00,
2013-05-16 11:44:00,70.1,55.2,29.64,NW,306,1.8,4.3,59,0.00,,,-99.99,812.0,HOBO +U30 +Weather +,2013-05-16 15:44:00,
2013-05-16 11:53:00,71.2,54.0,29.64,West,279,2.5,6.0,54,0.00,,,-99.99,503.0,HOBO +U30 +Weather +,2013-05-16 15:53:00,
2013-05-16 11:54:00,72.6,56.1,29.63,WNW,284,0.0,3.4,56,0.00,,,-99.99,653.0,HOBO +U30 +Weather +,2013-05-16 15:54:00,
2013-05-16 11:55:00,71.3,53.6,29.63,NW,307,0.9,2.5,53,0.00,,,-99.99,557.0,HOBO +U30 +Weather +,2013-05-16 15:55:00,
2013-05-16 11:56:00,71.3,54.0,29.63,NNW,347,0.0,1.8,54,0.00,,,-99.99,427.0,HOBO +U30 +Weather +,2013-05-16 15:56:00,
2013-05-16 12:03:00,72.1,55.4,29.63,WNW,299,1.8,6.0,55,0.00,,,-99.99,862.0,HOBO +U30 +Weather +,2013-05-16 16:03:00,
2013-05-16 12:04:00,72.7,54.4,29.63,WNW,282,1.8,3.4,52,0.00,,,-99.99,873.0,HOBO +U30 +Weather +,2013-05-16 16:04:00,
2013-05-16 12:06:00,71.2,53.2,29.63,NW,309,0.9,7.6,53,0.00,,,-99.99,672.0,HOBO +U30 +Weather +,2013-05-16 16:06:00,
2013-05-16 12:13:00,70.8,54.1,29.63,West,270,5.1,7.6,55,0.00,,,-99.99,989.0,HOBO +U30 +Weather +,2013-05-16 16:13:00,
2013-05-16 12:14:00,72.5,55.2,29.64,WNW,292,2.5,6.0,54,0.00,,,-99.99,878.0,HOBO +U30 +Weather +,2013-05-16 16:14:00,
2013-05-16 12:23:00,71.5,54.7,29.63,WNW,285,2.5,6.0,55,0.00,,,-99.99,919.0,HOBO +U30 +Weather +,2013-05-16 16:23:00,
2013-05-16 12:24:00,70.1,54.4,29.63,West,261,4.3,10.3,57,0.00,,,-99.99,939.0,HOBO +U30 +Weather +,2013-05-16 16:24:00,
2013-05-16 12:33:00,71.8,54.9,29.63,WNW,282,0.9,5.1,55,0.00,,,-99.99,946.0,HOBO +U30 +Weather +,2013-05-16 16:33:00,
2013-05-16 12:34:00,71.1,53.3,29.62,WNW,285,5.1,11.9,53,0.00,,,-99.99,917.0,HOBO +U30 +Weather +,2013-05-16 16:34:00,
2013-05-16 12:43:00,70.9,53.2,29.63,WNW,282,7.6,11.9,53,0.00,,,-99.99,908.0,HOBO +U30 +Weather +,2013-05-16 16:43:00,
2013-05-16 12:44:00,71.5,53.5,29.62,WNW,291,6.0,10.3,53,0.00,,,-99.99,934.0,HOBO +U30 +Weather +,2013-05-16 16:44:00,
2013-05-16 12:53:00,70.7,54.6,29.63,West,271,5.1,9.4,56,0.00,,,-99.99,893.0,HOBO +U30 +Weather +,2013-05-16 16:53:00,
2013-05-16 12:54:00,70.1,52.5,29.62,WNW,288,7.6,11.9,53,0.00,,,-99.99,908.0,HOBO +U30 +Weather +,2013-05-16 16:54:00,
2013-05-16 13:03:00,68.6,55.3,29.62,WNW,285,4.3,7.6,62,0.00,,,-99.99,889.0,HOBO +U30 +Weather +,2013-05-16 17:03:00,
2013-05-16 13:04:00,69.8,53.5,29.62,NW,307,7.6,11.0,56,0.00,,,-99.99,892.0,HOBO +U30 +Weather +,2013-05-16 17:04:00,
2013-05-16 13:13:00,68.2,55.7,29.61,WNW,282,3.4,7.6,64,0.00,,,-99.99,883.0,HOBO +U30 +Weather +,2013-05-16 17:13:00,
2013-05-16 13:14:00,69.1,55.1,29.62,WNW,282,5.1,11.0,61,0.00,,,-99.99,892.0,HOBO +U30 +Weather +,2013-05-16 17:14:00,
2013-05-16 13:23:00,69.5,54.4,29.60,WNW,303,3.4,9.4,58,0.00,,,-99.99,886.0,HOBO +U30 +Weather +,2013-05-16 17:23:00,
2013-05-16 13:24:00,68.0,55.5,29.61,West,279,6.7,12.8,64,0.00,,,-99.99,887.0,HOBO +U30 +Weather +,2013-05-16 17:24:00,
2013-05-16 13:25:00,69.0,54.6,29.60,WNW,293,6.0,10.3,60,0.00,,,-99.99,886.0,HOBO +U30 +Weather +,2013-05-16 17:25:00,
2013-05-16 13:26:00,69.0,54.4,29.60,WNW,288,6.0,9.4,59,0.00,,,-99.99,884.0,HOBO +U30 +Weather +,2013-05-16 17:26:00,
2013-05-16 13:33:00,70.0,53.9,29.60,WNW,285,6.7,11.9,56,0.00,,,-99.99,878.0,HOBO +U30 +Weather +,2013-05-16 17:33:00,
2013-05-16 13:34:00,70.2,53.9,29.61,WNW,288,6.0,11.0,56,0.00,,,-99.99,879.0,HOBO +U30 +Weather +,2013-05-16 17:34:00,
2013-05-16 13:36:00,69.2,54.0,29.60,NW,307,4.3,9.4,58,0.00,,,-99.99,881.0,HOBO +U30 +Weather +,2013-05-16 17:36:00,
2013-05-16 13:43:00,70.0,52.0,29.61,WNW,302,6.0,11.0,52,0.00,,,-99.99,873.0,HOBO +U30 +Weather +,2013-05-16 17:43:00,
2013-05-16 13:44:00,70.2,53.0,29.60,West,281,8.5,14.5,54,0.00,,,-99.99,879.0,HOBO +U30 +Weather +,2013-05-16 17:44:00,
2013-05-16 13:53:00,71.0,51.3,29.60,NW,307,3.4,6.7,49,0.00,,,-99.99,863.0,HOBO +U30 +Weather +,2013-05-16 17:53:00,
2013-05-16 13:54:00,70.6,53.2,29.60,WNW,303,5.1,11.0,54,0.00,,,-99.99,872.0,HOBO +U30 +Weather +,2013-05-16 17:54:00,
2013-05-16 14:03:00,72.3,51.2,29.60,West,271,6.0,11.9,47,0.00,,,-99.99,853.0,HOBO +U30 +Weather +,2013-05-16 18:03:00,
2013-05-16 14:04:00,71.5,51.3,29.60,WNW,291,6.0,11.9,48,0.00,,,-99.99,863.0,HOBO +U30 +Weather +,2013-05-16 18:04:00,
2013-05-16 14:13:00,71.0,50.8,29.60,WNW,284,8.5,11.0,48,0.00,,,-99.99,836.0,HOBO +U30 +Weather +,2013-05-16 18:13:00,
2013-05-16 14:14:00,71.2,50.6,29.61,WNW,286,6.7,17.9,48,0.00,,,-99.99,848.0,HOBO +U30 +Weather +,2013-05-16 18:14:00,
2013-05-16 14:23:00,69.1,53.8,29.61,West,272,6.7,14.5,58,0.00,,,-99.99,814.0,HOBO +U30 +Weather +,2013-05-16 18:23:00,
2013-05-16 14:24:00,70.1,51.0,29.61,West,275,6.0,9.4,50,0.00,,,-99.99,833.0,HOBO +U30 +Weather +,2013-05-16 18:24:00,
2013-05-16 14:25:00,68.9,53.8,29.61,WNW,302,3.4,7.6,58,0.00,,,-99.99,811.0,HOBO +U30 +Weather +,2013-05-16 18:25:00,
2013-05-16 14:33:00,69.7,53.4,29.60,NW,316,4.3,12.8,56,0.00,,,-99.99,804.0,HOBO +U30 +Weather +,2013-05-16 18:33:00,
2013-05-16 14:34:00,69.7,52.9,29.61,WNW,288,6.7,11.9,55,0.00,,,-99.99,801.0,HOBO +U30 +Weather +,2013-05-16 18:34:00,
2013-05-16 14:35:00,69.3,53.7,29.61,WNW,298,4.3,9.4,57,0.00,,,-99.99,812.0,HOBO +U30 +Weather +,2013-05-16 18:35:00,
2013-05-16 14:43:00,67.0,52.9,29.60,West,274,11.9,22.1,60,0.00,,,-99.99,779.0,HOBO +U30 +Weather +,2013-05-16 18:43:00,
2013-05-16 14:44:00,69.4,52.3,29.61,WNW,285,8.5,15.4,54,0.00,,,-99.99,797.0,HOBO +U30 +Weather +,2013-05-16 18:44:00,
2013-05-16 14:53:00,67.6,54.5,29.61,WNW,295,6.0,11.9,62,0.00,,,-99.99,762.0,HOBO +U30 +Weather +,2013-05-16 18:53:00,
2013-05-16 14:54:00,67.1,53.9,29.60,WNW,286,5.1,10.3,62,0.00,,,-99.99,774.0,HOBO +U30 +Weather +,2013-05-16 18:54:00,
2013-05-16 15:03:00,67.0,53.5,29.61,WNW,286,7.6,21.3,61,0.00,,,-99.99,747.0,HOBO +U30 +Weather +,2013-05-16 19:03:00,
2013-05-16 15:04:00,67.2,54.0,29.60,West,277,8.5,15.4,62,0.00,,,-99.99,758.0,HOBO +U30 +Weather +,2013-05-16 19:04:00,
2013-05-16 15:13:00,67.1,53.0,29.60,WNW,291,6.7,12.8,60,0.00,,,-99.99,724.0,HOBO +U30 +Weather +,2013-05-16 19:13:00,
2013-05-16 15:14:00,66.8,53.6,29.61,WNW,298,6.7,13.6,62,0.00,,,-99.99,743.0,HOBO +U30 +Weather +,2013-05-16 19:14:00,
2013-05-16 15:15:00,66.9,51.9,29.61,WNW,303,7.6,16.1,58,0.00,,,-99.99,719.0,HOBO +U30 +Weather +,2013-05-16 19:15:00,
2013-05-16 15:23:00,66.4,51.7,29.60,WNW,285,3.4,6.0,59,0.00,,,-99.99,702.0,HOBO +U30 +Weather +,2013-05-16 19:23:00,
2013-05-16 15:24:00,66.0,52.0,29.60,WNW,285,3.4,6.0,60,0.00,,,-99.99,699.0,HOBO +U30 +Weather +,2013-05-16 19:24:00,
2013-05-16 15:25:00,66.6,52.2,29.60,WNW,286,6.0,16.1,59,0.00,,,-99.99,719.0,HOBO +U30 +Weather +,2013-05-16 19:25:00,
2013-05-16 15:33:00,66.2,52.1,29.60,WNW,289,3.4,6.0,60,0.00,,,-99.99,682.0,HOBO +U30 +Weather +,2013-05-16 19:33:00,
2013-05-16 15:34:00,66.3,52.3,29.60,WNW,284,3.4,6.0,60,0.00,,,-99.99,699.0,HOBO +U30 +Weather +,2013-05-16 19:34:00,
2013-05-16 15:43:00,67.6,52.5,29.60,WNW,282,3.4,6.0,58,0.00,,,-99.99,662.0,HOBO +U30 +Weather +,2013-05-16 19:43:00,
2013-05-16 15:44:00,66.3,52.0,29.61,WNW,291,3.4,6.0,59,0.00,,,-99.99,678.0,HOBO +U30 +Weather +,2013-05-16 19:44:00,
2013-05-16 15:45:00,66.3,51.9,29.60,WNW,288,3.4,6.0,59,0.00,,,-99.99,656.0,HOBO +U30 +Weather +,2013-05-16 19:45:00,
2013-05-16 15:53:00,67.2,52.9,29.60,WNW,291,3.4,6.0,60,0.00,,,-99.99,638.0,HOBO +U30 +Weather +,2013-05-16 19:53:00,
2013-05-16 15:54:00,67.2,53.2,29.60,West,271,3.4,6.0,60,0.00,,,-99.99,638.0,HOBO +U30 +Weather +,2013-05-16 19:54:00,
2013-05-16 15:55:00,66.7,52.1,29.60,WNW,286,3.4,6.0,59,0.00,,,-99.99,656.0,HOBO +U30 +Weather +,2013-05-16 19:55:00,
2013-05-16 16:03:00,66.9,51.7,29.60,WNW,300,3.4,6.0,58,0.00,,,-99.99,617.0,HOBO +U30 +Weather +,2013-05-16 20:03:00,
2013-05-16 16:04:00,67.9,53.4,29.60,WSW,250,3.4,6.0,59,0.00,,,-99.99,634.0,HOBO +U30 +Weather +,2013-05-16 20:04:00,
2013-05-16 16:05:00,67.2,51.9,29.60,West,274,3.4,6.0,57,0.00,,,-99.99,611.0,HOBO +U30 +Weather +,2013-05-16 20:05:00,
2013-05-16 16:13:00,67.9,52.0,29.60,WNW,295,3.4,6.0,56,0.00,,,-99.99,588.0,HOBO +U30 +Weather +,2013-05-16 20:13:00,
2013-05-16 16:14:00,67.6,52.1,29.60,NW,307,3.4,6.0,57,0.00,,,-99.99,584.0,HOBO +U30 +Weather +,2013-05-16 20:14:00,
2013-05-16 16:15:00,67.2,51.5,29.59,West,279,3.4,6.0,57,0.00,,,-99.99,608.0,HOBO +U30 +Weather +,2013-05-16 20:15:00,
2013-05-16 16:23:00,67.3,52.2,29.60,WNW,289,3.4,6.0,58,0.00,,,-99.99,562.0,HOBO +U30 +Weather +,2013-05-16 20:23:00,
2013-05-16 16:24:00,67.7,51.9,29.60,WNW,299,3.4,6.0,56,0.00,,,-99.99,582.0,HOBO +U30 +Weather +,2013-05-16 20:24:00,
2013-05-16 16:33:00,66.4,52.5,29.60,West,272,3.4,6.0,60,0.00,,,-99.99,539.0,HOBO +U30 +Weather +,2013-05-16 20:33:00,
2013-05-16 16:34:00,67.2,52.1,29.60,WNW,289,3.4,6.0,58,0.00,,,-99.99,558.0,HOBO +U30 +Weather +,2013-05-16 20:34:00,
2013-05-16 16:43:00,65.8,52.2,29.60,West,277,3.4,6.0,61,0.00,,,-99.99,513.0,HOBO +U30 +Weather +,2013-05-16 20:43:00,
2013-05-16 16:44:00,66.3,52.4,29.60,WNW,295,3.4,6.0,60,0.00,,,-99.99,532.0,HOBO +U30 +Weather +,2013-05-16 20:44:00,
2013-05-16 16:53:00,66.8,53.1,29.60,West,279,3.4,6.0,61,0.00,,,-99.99,486.0,HOBO +U30 +Weather +,2013-05-16 20:53:00,
2013-05-16 16:54:00,66.0,52.5,29.61,West,271,3.4,6.0,61,0.00,,,-99.99,507.0,HOBO +U30 +Weather +,2013-05-16 20:54:00,
2013-05-16 16:55:00,66.3,52.3,29.60,West,265,3.4,6.0,60,0.00,,,-99.99,479.0,HOBO +U30 +Weather +,2013-05-16 20:55:00,
2013-05-16 17:03:00,65.1,52.2,29.60,West,281,3.4,6.0,63,0.00,,,-99.99,457.0,HOBO +U30 +Weather +,2013-05-16 21:03:00,
2013-05-16 17:04:00,64.8,52.6,29.60,WNW,299,3.4,6.0,64,0.00,,,-99.99,453.0,HOBO +U30 +Weather +,2013-05-16 21:04:00,
2013-05-16 17:05:00,66.2,52.6,29.60,West,267,3.4,6.0,61,0.00,,,-99.99,476.0,HOBO +U30 +Weather +,2013-05-16 21:05:00,
2013-05-16 17:13:00,65.6,52.8,29.61,WNW,293,3.4,6.0,63,0.00,,,-99.99,424.0,HOBO +U30 +Weather +,2013-05-16 21:13:00,
2013-05-16 17:14:00,65.5,53.1,29.60,WNW,288,3.4,6.0,64,0.00,,,-99.99,421.0,HOBO +U30 +Weather +,2013-05-16 21:14:00,
2013-05-16 17:15:00,65.2,52.6,29.59,West,281,3.4,6.0,63,0.00,,,-99.99,448.0,HOBO +U30 +Weather +,2013-05-16 21:15:00,
2013-05-16 17:23:00,65.3,53.3,29.61,WNW,288,3.4,6.0,65,0.00,,,-99.99,394.0,HOBO +U30 +Weather +,2013-05-16 21:23:00,
2013-05-16 17:24:00,65.5,52.9,29.61,West,278,3.4,6.0,63,0.00,,,-99.99,417.0,HOBO +U30 +Weather +,2013-05-16 21:24:00,
2013-05-16 17:33:00,65.1,52.9,29.60,West,271,3.4,6.0,64,0.00,,,-99.99,368.0,HOBO +U30 +Weather +,2013-05-16 21:33:00,
2013-05-16 17:34:00,65.2,53.0,29.61,WNW,286,3.4,6.0,64,0.00,,,-99.99,391.0,HOBO +U30 +Weather +,2013-05-16 21:34:00,
2013-05-16 17:43:00,63.9,52.6,29.61,WNW,298,3.4,6.0,66,0.00,,,-99.99,341.0,HOBO +U30 +Weather +,2013-05-16 21:43:00,
2013-05-16 17:44:00,64.8,52.9,29.61,WNW,289,3.4,6.0,65,0.00,,,-99.99,361.0,HOBO +U30 +Weather +,2013-05-16 21:44:00,
2013-05-16 17:45:00,63.9,52.5,29.61,WNW,282,3.4,6.0,66,0.00,,,-99.99,332.0,HOBO +U30 +Weather +,2013-05-16 21:45:00,
2013-05-16 17:53:00,63.2,52.4,29.61,West,267,3.4,6.0,67,0.00,,,-99.99,308.0,HOBO +U30 +Weather +,2013-05-16 21:53:00,
2013-05-16 17:54:00,63.1,52.6,29.61,WNW,292,3.4,6.0,68,0.00,,,-99.99,306.0,HOBO +U30 +Weather +,2013-05-16 21:54:00,
2013-05-16 17:55:00,63.5,52.4,29.61,WNW,295,3.4,6.0,67,0.00,,,-99.99,328.0,HOBO +U30 +Weather +,2013-05-16 21:55:00,
2013-05-16 18:03:00,63.2,52.7,29.61,WNW,291,3.4,6.0,68,0.00,,,-99.99,277.0,HOBO +U30 +Weather +,2013-05-16 22:03:00,
2013-05-16 18:04:00,63.1,52.4,29.61,WNW,291,3.4,6.0,68,0.00,,,-99.99,303.0,HOBO +U30 +Weather +,2013-05-16 22:04:00,
2013-05-16 18:05:00,63.1,52.7,29.61,WNW,288,3.4,6.0,68,0.00,,,-99.99,269.0,HOBO +U30 +Weather +,2013-05-16 22:05:00,
2013-05-16 18:13:00,62.3,52.3,29.61,WNW,286,3.4,6.0,69,0.00,,,-99.99,249.0,HOBO +U30 +Weather +,2013-05-16 22:13:00,
2013-05-16 18:14:00,62.4,52.3,29.62,WNW,299,3.4,6.0,69,0.00,,,-99.99,247.0,HOBO +U30 +Weather +,2013-05-16 22:14:00,
2013-05-16 18:15:00,63.0,52.5,29.61,West,279,3.4,6.0,68,0.00,,,-99.99,268.0,HOBO +U30 +Weather +,2013-05-16 22:15:00,
2013-05-16 18:23:00,62.0,52.3,29.62,West,274,3.4,6.0,70,0.00,,,-99.99,216.0,HOBO +U30 +Weather +,2013-05-16 22:23:00,
2013-05-16 18:24:00,62.3,52.2,29.62,West,278,3.4,6.0,69,0.00,,,-99.99,246.0,HOBO +U30 +Weather +,2013-05-16 22:24:00,
2013-05-16 18:25:00,62.0,52.3,29.62,West,265,3.4,6.0,70,0.00,,,-99.99,208.0,HOBO +U30 +Weather +,2013-05-16 22:25:00,
2013-05-16 18:33:00,62.0,52.5,29.62,West,268,3.4,6.0,71,0.00,,,-99.99,184.0,HOBO +U30 +Weather +,2013-05-16 22:33:00,
2013-05-16 18:34:00,61.9,52.5,29.62,WNW,285,3.4,6.0,71,0.00,,,-99.99,182.0,HOBO +U30 +Weather +,2013-05-16 22:34:00,
2013-05-16 18:35:00,62.0,52.4,29.62,West,279,3.4,6.0,70,0.00,,,-99.99,204.0,HOBO +U30 +Weather +,2013-05-16 22:35:00,
2013-05-16 18:43:00,61.0,52.2,29.62,West,278,3.4,6.0,72,0.00,,,-99.99,157.0,HOBO +U30 +Weather +,2013-05-16 22:43:00,
2013-05-16 18:44:00,61.8,52.4,29.62,West,264,3.4,6.0,71,0.00,,,-99.99,179.0,HOBO +U30 +Weather +,2013-05-16 22:44:00,
2013-05-16 18:53:00,60.4,52.1,29.62,WNW,284,3.4,6.0,74,0.00,,,-99.99,69.0,HOBO +U30 +Weather +,2013-05-16 22:53:00,
2013-05-16 18:54:00,60.8,52.1,29.62,WNW,288,3.4,6.0,73,0.00,,,-99.99,151.0,HOBO +U30 +Weather +,2013-05-16 22:54:00,
2013-05-16 19:03:00,60.1,51.8,29.63,West,279,3.4,6.0,74,0.00,,,-99.99,31.0,HOBO +U30 +Weather +,2013-05-16 23:03:00,
2013-05-16 19:04:00,60.3,52.1,29.62,WNW,302,3.4,6.0,74,0.00,,,-99.99,94.0,HOBO +U30 +Weather +,2013-05-16 23:04:00,
2013-05-16 19:13:00,59.7,51.8,29.63,West,278,3.4,6.0,75,0.00,,,-99.99,26.0,HOBO +U30 +Weather +,2013-05-16 23:13:00,
2013-05-16 19:14:00,60.0,51.9,29.62,West,263,3.4,6.0,74,0.00,,,-99.99,29.0,HOBO +U30 +Weather +,2013-05-16 23:14:00,
2013-05-16 19:23:00,59.3,51.8,29.63,WNW,284,3.4,6.0,76,0.00,,,-99.99,21.0,HOBO +U30 +Weather +,2013-05-16 23:23:00,
2013-05-16 19:24:00,59.6,51.8,29.63,West,279,3.4,6.0,75,0.00,,,-99.99,24.0,HOBO +U30 +Weather +,2013-05-16 23:24:00,
2013-05-16 19:33:00,59.1,51.7,29.63,WNW,282,3.4,6.0,76,0.00,,,-99.99,16.0,HOBO +U30 +Weather +,2013-05-16 23:33:00,
2013-05-16 19:34:00,59.3,51.8,29.63,West,261,3.4,6.0,76,0.00,,,-99.99,19.0,HOBO +U30 +Weather +,2013-05-16 23:34:00,
2013-05-16 19:43:00,58.9,51.6,29.64,West,271,3.4,6.0,76,0.00,,,-99.99,11.0,HOBO +U30 +Weather +,2013-05-16 23:43:00,
2013-05-16 19:44:00,58.9,51.7,29.63,West,281,3.4,6.0,76,0.00,,,-99.99,14.0,HOBO +U30 +Weather +,2013-05-16 23:44:00,
2013-05-16 19:53:00,58.9,51.4,29.64,WNW,296,3.4,6.0,76,0.00,,,-99.99,6.0,HOBO +U30 +Weather +,2013-05-16 23:53:00,
2013-05-16 19:54:00,58.8,51.6,29.64,West,277,3.4,6.0,76,0.00,,,-99.99,9.0,HOBO +U30 +Weather +,2013-05-16 23:54:00,
2013-05-16 20:03:00,58.3,51.3,29.65,West,279,3.4,6.0,77,0.00,,,-99.99,2.0,HOBO +U30 +Weather +,2013-05-17 00:03:00,
2013-05-16 20:04:00,58.7,51.5,29.65,WNW,291,3.4,6.0,76,0.00,,,-99.99,4.0,HOBO +U30 +Weather +,2013-05-17 00:04:00,
2013-05-16 20:13:00,58.2,51.5,29.65,WNW,296,3.4,6.0,78,0.00,,,-99.99,1.0,HOBO +U30 +Weather +,2013-05-17 00:13:00,
2013-05-16 20:14:00,58.2,51.3,29.65,WNW,296,3.4,6.0,77,0.00,,,-99.99,1.0,HOBO +U30 +Weather +,2013-05-17 00:14:00,
2013-05-16 20:23:00,58.2,51.4,29.66,WNW,291,3.4,6.0,78,0.00,,,-99.99,1.0,HOBO +U30 +Weather +,2013-05-17 00:23:00,
2013-05-16 20:24:00,58.0,51.4,29.65,West,278,3.4,6.0,78,0.00,,,-99.99,1.0,HOBO +U30 +Weather +,2013-05-17 00:24:00,
2013-05-16 20:33:00,58.2,51.4,29.67,WNW,289,3.4,6.0,78,0.00,,,-99.99,1.0,HOBO +U30 +Weather +,2013-05-17 00:33:00,
2013-05-16 20:34:00,58.1,51.4,29.66,WNW,299,3.4,6.0,78,0.00,,,-99.99,1.0,HOBO +U30 +Weather +,2013-05-17 00:34:00,
2013-05-16 20:43:00,57.8,51.4,29.67,West,267,3.4,6.0,78,0.00,,,-99.99,1.0,HOBO +U30 +Weather +,2013-05-17 00:43:00,
2013-05-16 20:44:00,58.0,51.4,29.67,WNW,285,3.4,6.0,78,0.00,,,-99.99,1.0,HOBO +U30 +Weather +,2013-05-17 00:44:00,
2013-05-16 20:53:00,57.7,51.7,29.68,West,277,3.4,6.0,80,0.00,,,-99.99,1.0,HOBO +U30 +Weather +,2013-05-17 00:53:00,
2013-05-16 20:54:00,57.6,51.4,29.67,WNW,286,3.4,6.0,79,0.00,,,-99.99,1.0,HOBO +U30 +Weather +,2013-05-17 00:54:00,
2013-05-16 21:03:00,57.4,51.6,29.68,West,270,3.4,6.0,80,0.00,,,-99.99,1.0,HOBO +U30 +Weather +,2013-05-17 01:03:00,
2013-05-16 21:04:00,57.5,51.6,29.68,WNW,284,3.4,6.0,80,0.00,,,-99.99,1.0,HOBO +U30 +Weather +,2013-05-17 01:04:00,
2013-05-16 21:05:00,57.3,51.6,29.68,WNW,288,3.4,6.0,81,0.00,,,-99.99,1.0,HOBO +U30 +Weather +,2013-05-17 01:05:00,
2013-05-16 21:13:00,57.2,51.6,29.68,WNW,284,0.0,3.4,81,0.00,,,-99.99,1.0,HOBO +U30 +Weather +,2013-05-17 01:13:00,
2013-05-16 21:14:00,57.3,51.7,29.69,West,281,2.5,6.0,81,0.00,,,-99.99,1.0,HOBO +U30 +Weather +,2013-05-17 01:14:00,
2013-05-16 21:15:00,57.3,51.6,29.68,WNW,293,215.4,215.4,81,0.00,,,-99.99,1.0,HOBO +U30 +Weather +,2013-05-17 01:15:00,
2013-05-16 21:23:00,57.8,51.6,29.69,WNW,292,1.8,4.3,79,0.00,,,-99.99,1.0,HOBO +U30 +Weather +,2013-05-17 01:23:00,
2013-05-16 21:24:00,57.5,51.7,29.68,WNW,282,2.5,6.0,80,0.00,,,-99.99,1.0,HOBO +U30 +Weather +,2013-05-17 01:24:00,
2013-05-16 21:33:00,57.6,51.5,29.69,WNW,289,2.5,8.5,80,0.00,,,-99.99,1.0,HOBO +U30 +Weather +,2013-05-17 01:33:00,
2013-05-16 21:34:00,57.8,51.6,29.69,WNW,289,1.8,5.1,79,0.00,,,-99.99,1.0,HOBO +U30 +Weather +,2013-05-17 01:34:00,
2013-05-16 21:43:00,57.6,51.4,29.69,West,279,2.5,6.0,79,0.00,,,-99.99,1.0,HOBO +U30 +Weather +,2013-05-17 01:43:00,
2013-05-16 21:44:00,57.5,51.5,29.69,WNW,289,1.8,3.4,80,0.00,,,-99.99,1.0,HOBO +U30 +Weather +,2013-05-17 01:44:00,
2013-05-16 21:53:00,57.7,51.5,29.70,WNW,293,2.5,6.0,79,0.00,,,-99.99,1.0,HOBO +U30 +Weather +,2013-05-17 01:53:00,
2013-05-16 21:54:00,58.0,51.3,29.69,WNW,289,1.8,4.3,78,0.00,,,-99.99,1.0,HOBO +U30 +Weather +,2013-05-17 01:54:00,
2013-05-16 21:55:00,58.0,51.4,29.69,WNW,288,2.5,4.3,78,0.00,,,-99.99,1.0,HOBO +U30 +Weather +,2013-05-17 01:55:00,
2013-05-16 22:03:00,58.0,51.3,29.69,WNW,291,0.9,3.4,78,0.00,,,-99.99,1.0,HOBO +U30 +Weather +,2013-05-17 02:03:00,
2013-05-16 22:04:00,58.0,51.3,29.70,WNW,296,2.5,5.1,78,0.00,,,-99.99,1.0,HOBO +U30 +Weather +,2013-05-17 02:04:00,
2013-05-16 22:05:00,57.9,51.3,29.70,West,277,1.8,3.4,78,0.00,,,-99.99,1.0,HOBO +U30 +Weather +,2013-05-17 02:05:00,
2013-05-16 22:13:00,58.0,51.2,29.70,WNW,282,2.5,6.0,78,0.00,,,-99.99,1.0,HOBO +U30 +Weather +,2013-05-17 02:13:00,
2013-05-16 22:14:00,58.0,51.3,29.70,West,278,3.4,6.0,78,0.00,,,-99.99,1.0,HOBO +U30 +Weather +,2013-05-17 02:14:00,
2013-05-16 22:23:00,57.7,51.1,29.70,WNW,282,2.5,5.1,78,0.00,,,-99.99,1.0,HOBO +U30 +Weather +,2013-05-17 02:23:00,
2013-05-16 22:24:00,57.9,51.2,29.70,West,281,2.5,6.0,78,0.00,,,-99.99,1.0,HOBO +U30 +Weather +,2013-05-17 02:24:00,
2013-05-16 22:33:00,57.9,50.9,29.70,NW,307,0.0,0.9,77,0.00,,,-99.99,1.0,HOBO +U30 +Weather +,2013-05-17 02:33:00,
2013-05-16 22:34:00,57.8,51.1,29.69,WNW,282,2.5,5.1,78,0.00,,,-99.99,1.0,HOBO +U30 +Weather +,2013-05-17 02:34:00,
2013-05-16 22:43:00,57.4,50.6,29.70,West,275,0.0,1.8,78,0.00,,,-99.99,1.0,HOBO +U30 +Weather +,2013-05-17 02:43:00,
2013-05-16 22:44:00,57.8,50.8,29.70,NW,306,0.0,2.5,77,0.00,,,-99.99,1.0,HOBO +U30 +Weather +,2013-05-17 02:44:00,
2013-05-16 22:53:00,56.5,50.5,29.72,WNW,286,0.0,0.0,80,0.00,,,-99.99,1.0,HOBO +U30 +Weather +,2013-05-17 02:53:00,
2013-05-16 22:54:00,57.3,50.6,29.71,WNW,284,0.0,0.0,78,0.00,,,-99.99,1.0,HOBO +U30 +Weather +,2013-05-17 02:54:00,
2013-05-16 22:55:00,56.3,50.5,29.71,West,277,0.0,0.0,80,0.00,,,-99.99,1.0,HOBO +U30 +Weather +,2013-05-17 02:55:00,
2013-05-16 23:03:00,55.1,49.7,29.72,West,277,0.0,0.0,82,0.00,,,-99.99,1.0,HOBO +U30 +Weather +,2013-05-17 03:03:00,
2013-05-16 23:04:00,54.8,49.6,29.72,West,277,0.0,0.0,82,0.00,,,-99.99,1.0,HOBO +U30 +Weather +,2013-05-17 03:04:00,
2013-05-16 23:05:00,56.2,50.4,29.71,West,277,0.0,0.0,80,0.00,,,-99.99,1.0,HOBO +U30 +Weather +,2013-05-17 03:05:00,
2013-05-16 23:13:00,53.4,49.1,29.72,West,277,0.0,0.0,85,0.00,,,-99.99,1.0,HOBO +U30 +Weather +,2013-05-17 03:13:00,
2013-05-16 23:14:00,54.6,49.5,29.72,West,277,0.0,0.0,82,0.00,,,-99.99,1.0,HOBO +U30 +Weather +,2013-05-17 03:14:00,
2013-05-16 23:23:00,53.3,49.1,29.72,West,277,0.0,0.0,85,0.00,,,-99.99,1.0,HOBO +U30 +Weather +,2013-05-17 03:23:00,
2013-05-16 23:24:00,52.9,49.3,29.72,West,277,0.0,0.0,87,0.00,,,-99.99,1.0,HOBO +U30 +Weather +,2013-05-17 03:24:00,
2013-05-16 23:33:00,52.6,49.2,29.72,West,277,0.0,0.0,88,0.00,,,-99.99,1.0,HOBO +U30 +Weather +,2013-05-17 03:33:00,
2013-05-16 23:34:00,52.9,49.3,29.72,West,277,0.0,0.0,87,0.00,,,-99.99,1.0,HOBO +U30 +Weather +,2013-05-17 03:34:00,
2013-05-16 23:35:00,52.5,49.2,29.72,West,277,0.0,0.0,88,0.00,,,-99.99,1.0,HOBO +U30 +Weather +,2013-05-17 03:35:00,
2013-05-16 23:43:00,52.0,49.2,29.72,West,277,0.0,0.0,90,0.00,,,-99.99,1.0,HOBO +U30 +Weather +,2013-05-17 03:43:00,
2013-05-16 23:44:00,51.9,49.1,29.72,West,277,0.0,0.0,90,0.00,,,-99.99,1.0,HOBO +U30 +Weather +,2013-05-17 03:44:00,
2013-05-16 23:45:00,52.4,49.2,29.72,West,277,0.0,0.0,88,0.00,,,-99.99,1.0,HOBO +U30 +Weather +,2013-05-17 03:45:00,
2013-05-16 23:53:00,51.4,48.8,29.72,West,277,0.0,0.0,90,0.00,,,-99.99,1.0,HOBO +U30 +Weather +,2013-05-17 03:53:00,
2013-05-16 23:54:00,51.8,48.9,29.72,West,277,0.0,0.0,89,0.00,,,-99.99,1.0,HOBO +U30 +Weather +,2013-05-17 03:54:00,